createdAt,value
2019-03-03T00:00:49.201Z,39.80
2019-03-03T00:03:18.151Z,38.60
2019-03-03T00:05:47.351Z,34.87
2019-03-03T00:08:16.232Z,33.33
2019-03-03T00:10:45.070Z,40.10
2019-03-03T00:13:13.856Z,33.17
2019-03-03T00:15:42.643Z,35.17
2019-03-03T00:18:11.622Z,41.80
2019-03-03T00:20:40.565Z,42.27
2019-03-03T00:23:09.460Z,38.13
2019-03-03T00:25:39.881Z,33.97
2019-03-03T00:28:08.911Z,47.67
2019-03-03T00:30:37.897Z,40.93
2019-03-03T00:33:06.975Z,39.23
2019-03-03T00:35:35.786Z,33.13
2019-03-03T00:38:27.041Z,33.97
2019-03-03T00:41:13.633Z,33.87
2019-03-03T00:44:01.465Z,32.47
2019-03-03T00:46:42.442Z,33.67
2019-03-03T00:49:30.649Z,33.70
2019-03-03T00:52:30.926Z,37.87
2019-03-03T00:55:12.441Z,34.27
2019-03-03T00:57:52.493Z,32.03
2019-03-03T01:00:45.411Z,32.50
2019-03-03T01:03:26.588Z,29.60
2019-03-03T01:06:10.365Z,30.53
2019-03-03T01:08:54.766Z,34.33
2019-03-03T01:11:43.445Z,31.40
2019-03-03T01:14:20.267Z,34.47
2019-03-03T01:16:57.013Z,38.23
2019-03-03T01:19:34.213Z,30.93
2019-03-03T01:22:31.234Z,31.50
2019-03-03T01:25:00.105Z,31.63
2019-03-03T01:27:29.197Z,33.53
2019-03-03T01:29:58.002Z,38.47
2019-03-03T01:32:26.867Z,37.80
2019-03-03T01:34:55.751Z,37.77
2019-03-03T01:37:24.822Z,40.53
2019-03-03T01:39:53.671Z,39.07
2019-03-03T01:42:22.647Z,38.37
2019-03-03T01:44:51.427Z,36.37
2019-03-03T01:47:20.297Z,37.17
2019-03-03T01:49:53.179Z,41.30
2019-03-03T01:52:21.947Z,36.77
2019-03-03T01:54:50.731Z,34.67
2019-03-03T01:57:19.617Z,36.97
2019-03-03T01:59:48.416Z,41.63
2019-03-03T02:02:17.228Z,32.07
2019-03-03T02:04:46.025Z,34.27
2019-03-03T02:07:14.793Z,37.83
2019-03-03T02:09:43.619Z,40.97
2019-03-03T02:12:12.637Z,39.87
2019-03-03T02:14:41.425Z,35.57
2019-03-03T02:17:11.837Z,38.43
2019-03-03T02:19:40.723Z,35.03
2019-03-03T02:22:09.741Z,42.53
2019-03-03T02:24:38.520Z,35.40
2019-03-03T02:27:07.282Z,37.80
2019-03-03T02:29:36.071Z,30.67
2019-03-03T02:32:06.869Z,37.33
2019-03-03T02:34:35.753Z,33.77
2019-03-03T02:37:04.650Z,38.10
2019-03-03T02:39:33.603Z,37.47
2019-03-03T02:42:02.479Z,32.83
2019-03-03T02:44:31.472Z,31.37
2019-03-03T02:47:00.365Z,33.23
2019-03-03T02:49:29.185Z,38.50
2019-03-03T02:51:57.958Z,39.10
2019-03-03T02:54:26.827Z,42.37
2019-03-03T02:56:55.575Z,40.50
2019-03-03T02:59:24.352Z,38.00
2019-03-03T03:01:56.468Z,39.10
2019-03-03T03:04:26.610Z,42.00
2019-03-03T03:07:05.298Z,38.17
2019-03-03T03:09:58.559Z,39.10
2019-03-03T03:12:34.137Z,41.77
2019-03-03T03:15:08.780Z,37.53
2019-03-03T03:17:50.255Z,34.87
2019-03-03T03:20:44.383Z,39.83
2019-03-03T03:23:21.668Z,37.50
2019-03-03T03:26:08.464Z,34.30
2019-03-03T03:28:53.935Z,39.60
2019-03-03T03:31:32.136Z,37.73
2019-03-03T03:34:12.252Z,43.73
2019-03-03T03:36:50.370Z,35.97
2019-03-03T03:39:27.959Z,41.83
2019-03-03T03:42:15.209Z,47.50
2019-03-03T03:45:18.540Z,33.60
2019-03-03T03:47:57.179Z,41.30
2019-03-03T03:50:43.930Z,41.80
2019-03-03T03:53:28.119Z,32.93
2019-03-03T03:56:09.154Z,38.97
2019-03-03T03:58:53.246Z,39.47
2019-03-03T04:01:38.685Z,38.40
2019-03-03T04:04:22.118Z,35.97
2019-03-03T04:07:10.090Z,35.70
2019-03-03T04:09:43.650Z,39.93
2019-03-03T04:12:34.687Z,38.00
2019-03-03T04:15:31.566Z,37.60
2019-03-03T04:18:05.813Z,39.53
2019-03-03T04:20:44.819Z,44.13
2019-03-03T04:23:45.112Z,34.47
2019-03-03T04:26:27.217Z,35.73
2019-03-03T04:29:13.977Z,35.67
2019-03-03T04:32:00.943Z,32.23
2019-03-03T04:35:03.919Z,30.53
2019-03-03T04:37:54.509Z,36.63
2019-03-03T04:40:32.343Z,34.90
2019-03-03T04:43:10.211Z,27.93
2019-03-03T04:45:44.401Z,38.30
2019-03-03T04:48:19.960Z,36.20
2019-03-03T04:51:06.725Z,35.93
2019-03-03T04:53:57.462Z,30.73
2019-03-03T04:56:36.482Z,39.30
2019-03-03T04:59:23.367Z,30.63
2019-03-03T05:02:15.230Z,27.47
2019-03-03T05:05:01.395Z,27.10
2019-03-03T05:07:49.523Z,27.97
2019-03-03T05:10:49.839Z,26.90
2019-03-03T05:13:22.808Z,28.23
2019-03-03T05:16:13.740Z,29.83
2019-03-03T05:18:55.710Z,28.20
2019-03-03T05:21:24.492Z,22.00
2019-03-03T05:23:53.356Z,26.93
2019-03-03T05:26:22.138Z,30.70
2019-03-03T05:28:50.939Z,25.07
2019-03-03T05:31:19.726Z,31.07
2019-03-03T05:33:49.884Z,23.40
2019-03-03T05:36:18.696Z,48.10
2019-03-03T05:38:47.483Z,22.23
2019-03-03T05:41:16.242Z,19.80
2019-03-03T05:43:45.078Z,26.20
2019-03-03T05:46:13.931Z,21.00
2019-03-03T05:48:42.738Z,22.43
2019-03-03T05:51:11.593Z,26.90
2019-03-03T05:53:40.432Z,25.03
2019-03-03T05:56:09.250Z,23.80
2019-03-03T05:58:38.088Z,23.47
2019-03-03T06:01:06.968Z,25.50
2019-03-03T06:03:35.794Z,21.80
2019-03-03T06:06:04.706Z,16.57
2019-03-03T06:08:33.522Z,20.73
2019-03-03T06:11:02.366Z,25.87
2019-03-03T06:13:31.152Z,16.37
2019-03-03T06:15:59.939Z,17.13
2019-03-03T06:18:28.726Z,15.13
2019-03-03T06:20:57.514Z,14.57
2019-03-03T06:23:26.382Z,20.93
2019-03-03T06:25:55.146Z,18.47
2019-03-03T06:28:23.910Z,15.30
2019-03-03T06:30:52.705Z,14.63
2019-03-03T06:33:21.604Z,11.83
2019-03-03T06:35:50.398Z,14.00
2019-03-03T06:38:19.167Z,12.27
2019-03-03T06:40:47.978Z,12.47
2019-03-03T06:43:16.839Z,11.83
2019-03-03T06:45:45.585Z,12.90
2019-03-03T06:48:14.444Z,10.33
2019-03-03T06:50:43.300Z,11.60
2019-03-03T06:53:12.104Z,12.70
2019-03-03T06:55:40.991Z,11.63
2019-03-03T06:58:09.816Z,9.57
2019-03-03T07:00:38.602Z,7.70
2019-03-03T07:03:07.463Z,11.10
2019-03-03T07:05:36.434Z,8.53
2019-03-03T07:08:05.518Z,8.13
2019-03-03T07:10:34.492Z,9.53
2019-03-03T07:13:03.278Z,7.00
2019-03-03T07:15:32.082Z,8.77
2019-03-03T07:18:00.955Z,6.97
2019-03-03T07:20:29.864Z,9.07
2019-03-03T07:22:58.746Z,8.70
2019-03-03T07:25:27.579Z,8.10
2019-03-03T07:27:56.470Z,6.63
2019-03-03T07:30:25.258Z,7.13
2019-03-03T07:33:12.488Z,7.20
2019-03-03T07:35:41.307Z,10.77
2019-03-03T07:38:10.136Z,13.03
2019-03-03T07:40:38.916Z,8.63
2019-03-03T07:43:07.724Z,7.70
2019-03-03T07:45:36.512Z,5.93
2019-03-03T07:48:05.558Z,4.03
2019-03-03T07:50:34.360Z,6.40
2019-03-03T07:53:03.307Z,5.13
2019-03-03T07:55:32.472Z,8.17
2019-03-03T07:58:01.344Z,7.20
2019-03-03T08:00:30.328Z,9.07
2019-03-03T08:02:59.188Z,5.07
2019-03-03T08:05:28.108Z,7.03
2019-03-03T08:07:56.970Z,7.03
2019-03-03T08:10:25.738Z,7.00
2019-03-03T08:12:54.539Z,8.60
2019-03-03T08:15:23.362Z,5.63
2019-03-03T08:17:52.220Z,6.40
2019-03-03T08:20:21.205Z,6.60
2019-03-03T08:22:50.094Z,4.77
2019-03-03T08:25:19.126Z,4.57
2019-03-03T08:27:47.990Z,7.47
2019-03-03T08:30:17.003Z,12.33
2019-03-03T08:32:45.984Z,6.23
2019-03-03T08:35:15.743Z,6.03
2019-03-03T08:37:44.706Z,6.83
2019-03-03T08:40:13.857Z,10.03
2019-03-03T08:42:48.620Z,5.20
2019-03-03T08:45:26.750Z,4.20
2019-03-03T08:48:10.785Z,8.90
2019-03-03T08:51:08.004Z,9.20
2019-03-03T08:53:43.556Z,4.73
2019-03-03T08:56:34.593Z,6.90
2019-03-03T08:59:19.398Z,11.70
2019-03-03T09:01:55.434Z,10.60
2019-03-03T09:04:42.038Z,10.37
2019-03-03T09:07:17.192Z,14.73
2019-03-03T09:09:55.899Z,9.73
2019-03-03T09:12:43.802Z,10.00
2019-03-03T09:15:34.619Z,14.00
2019-03-03T09:18:18.918Z,9.20
2019-03-03T09:21:06.372Z,9.73
2019-03-03T09:23:52.192Z,11.80
2019-03-03T09:26:38.820Z,12.40
2019-03-03T09:29:30.442Z,9.80
2019-03-03T09:32:27.616Z,11.10
2019-03-03T09:35:24.874Z,10.13
2019-03-03T09:38:11.566Z,15.13
2019-03-03T09:41:14.925Z,11.20
2019-03-03T09:44:01.634Z,11.40
2019-03-03T09:46:39.208Z,9.97
2019-03-03T09:49:23.344Z,11.30
2019-03-03T09:52:21.910Z,9.87
2019-03-03T09:55:12.924Z,6.27
2019-03-03T09:57:57.834Z,10.27
2019-03-03T10:00:57.994Z,9.90
2019-03-03T10:03:52.016Z,11.03
2019-03-03T10:06:30.566Z,8.90
2019-03-03T10:09:18.482Z,8.17
2019-03-03T10:12:04.974Z,7.10
2019-03-03T10:14:38.774Z,9.93
2019-03-03T10:17:16.601Z,7.70
2019-03-03T10:20:13.837Z,8.80
2019-03-03T10:23:04.867Z,8.90
2019-03-03T10:25:52.966Z,11.33
2019-03-03T10:28:39.679Z,14.40
2019-03-03T10:31:18.234Z,5.60
2019-03-03T10:33:58.058Z,3.77
2019-03-03T10:36:44.970Z,7.47
2019-03-03T10:39:36.017Z,8.20
2019-03-03T10:42:11.666Z,6.30
2019-03-03T10:44:59.610Z,6.13
2019-03-03T10:47:50.435Z,4.70
2019-03-03T10:50:38.242Z,7.67
2019-03-03T10:53:12.452Z,11.10
2019-03-03T10:56:12.501Z,8.17
2019-03-03T10:59:09.557Z,6.40
2019-03-03T11:01:53.586Z,11.50
2019-03-03T11:04:30.915Z,9.43
2019-03-03T11:07:15.341Z,10.83
2019-03-03T11:09:57.464Z,5.50
2019-03-03T11:12:44.546Z,6.10
2019-03-03T11:15:36.110Z,8.03
2019-03-03T11:18:23.243Z,11.43
2019-03-03T11:21:23.642Z,8.77
2019-03-03T11:24:18.522Z,7.70
2019-03-03T11:26:54.954Z,6.00
2019-03-03T11:29:41.637Z,5.40
2019-03-03T11:32:25.946Z,15.00
2019-03-03T11:35:16.106Z,9.17
2019-03-03T11:37:52.851Z,4.87
2019-03-03T11:40:29.535Z,9.33
2019-03-03T11:43:15.515Z,5.63
2019-03-03T11:46:21.973Z,6.00
2019-03-03T11:49:08.250Z,11.00
2019-03-03T11:51:48.263Z,13.13
2019-03-03T11:54:45.206Z,7.50
2019-03-03T11:57:29.194Z,11.00
2019-03-03T12:00:29.398Z,6.00
2019-03-03T12:03:20.658Z,10.13
2019-03-03T12:06:11.286Z,10.27
2019-03-03T12:08:50.111Z,6.70
2019-03-03T12:11:43.859Z,13.27
2019-03-03T12:14:27.541Z,10.03
2019-03-03T12:17:15.607Z,7.20
2019-03-03T12:20:03.546Z,6.83
2019-03-03T12:22:51.221Z,9.10
2019-03-03T12:25:39.417Z,6.30
2019-03-03T12:28:34.711Z,7.73
2019-03-03T12:31:18.353Z,10.53
2019-03-03T12:34:12.926Z,4.20
2019-03-03T12:37:08.334Z,6.33
2019-03-03T12:39:45.547Z,10.07
2019-03-03T12:42:40.082Z,9.87
2019-03-03T12:45:15.519Z,7.93
2019-03-03T12:48:12.537Z,12.80
2019-03-03T12:51:03.593Z,10.73
2019-03-03T12:53:44.823Z,11.03
2019-03-03T12:56:24.602Z,11.60
2019-03-03T12:59:11.155Z,9.20
2019-03-03T13:02:04.830Z,12.50
2019-03-03T13:04:45.928Z,6.53
2019-03-03T13:07:33.014Z,11.00
2019-03-03T13:10:16.966Z,9.00
2019-03-03T13:13:07.880Z,8.30
2019-03-03T13:15:45.350Z,11.90
2019-03-03T13:18:31.939Z,10.87
2019-03-03T13:21:11.633Z,13.90
2019-03-03T13:23:54.608Z,15.03
2019-03-03T13:26:35.693Z,9.20
2019-03-03T13:29:10.581Z,12.50
2019-03-03T13:31:49.467Z,9.73
2019-03-03T13:34:38.573Z,6.30
2019-03-03T13:37:29.410Z,12.53
2019-03-03T13:40:23.281Z,9.13
2019-03-03T13:43:00.199Z,12.07
2019-03-03T13:45:31.884Z,8.47
2019-03-03T13:48:00.847Z,11.10
2019-03-03T13:50:29.858Z,19.23
2019-03-03T13:52:58.953Z,14.83
2019-03-03T13:55:28.043Z,11.20
2019-03-03T13:57:56.968Z,8.53
2019-03-03T14:00:26.414Z,7.47
2019-03-03T14:02:55.303Z,10.33
2019-03-03T14:05:24.605Z,13.47
2019-03-03T14:07:53.491Z,9.00
2019-03-03T14:10:22.573Z,11.87
2019-03-03T14:12:51.630Z,5.00
2019-03-03T14:15:20.803Z,11.47
2019-03-03T14:17:49.676Z,5.90
2019-03-03T14:20:22.375Z,11.87
2019-03-03T14:22:52.221Z,7.00
2019-03-03T14:25:21.286Z,3.83
2019-03-03T14:27:50.239Z,14.73
2019-03-03T14:30:21.140Z,12.70
2019-03-03T14:32:50.006Z,9.60
2019-03-03T14:35:19.103Z,10.67
2019-03-03T14:37:48.416Z,10.43
2019-03-03T14:40:18.149Z,14.27
2019-03-03T14:42:47.131Z,7.23
2019-03-03T14:45:17.001Z,11.67
2019-03-03T14:47:45.969Z,8.30
2019-03-03T14:50:16.483Z,8.63
2019-03-03T14:52:46.477Z,12.47
2019-03-03T14:55:16.606Z,9.80
2019-03-03T14:57:45.605Z,8.67
2019-03-03T15:00:20.369Z,8.50
2019-03-03T15:02:49.278Z,7.30
2019-03-03T15:05:18.204Z,9.40
2019-03-03T15:07:47.139Z,8.80
2019-03-03T15:10:16.184Z,10.87
2019-03-03T15:12:45.175Z,14.93
2019-03-03T15:15:14.201Z,12.03
2019-03-03T15:17:43.229Z,12.57
2019-03-03T15:20:12.248Z,7.50
2019-03-03T15:22:41.052Z,16.83
2019-03-03T15:25:10.315Z,11.53
2019-03-03T15:27:39.417Z,16.20
2019-03-03T15:30:09.377Z,11.50
2019-03-03T15:32:38.299Z,16.47
2019-03-03T15:35:07.643Z,13.33
2019-03-03T15:37:36.509Z,14.57
2019-03-03T15:40:06.981Z,5.37
2019-03-03T15:42:35.887Z,11.40
2019-03-03T15:45:05.393Z,7.90
2019-03-03T15:47:34.332Z,12.33
2019-03-03T15:50:03.250Z,8.87
2019-03-03T15:52:32.173Z,9.80
2019-03-03T15:55:01.139Z,13.27
2019-03-03T15:57:30.013Z,10.60
2019-03-03T15:59:58.838Z,12.10
2019-03-03T16:02:27.656Z,11.97
2019-03-03T16:04:56.499Z,11.47
2019-03-03T16:07:25.461Z,9.17
2019-03-03T16:09:54.452Z,9.40
2019-03-03T16:12:23.498Z,14.90
2019-03-03T16:14:52.271Z,11.97
2019-03-03T16:17:21.097Z,5.90
2019-03-03T16:19:50.013Z,11.27
2019-03-03T16:22:18.810Z,9.47
2019-03-03T16:24:47.629Z,12.90
2019-03-03T16:27:16.505Z,11.53
2019-03-03T16:29:47.578Z,9.83
2019-03-03T16:32:16.388Z,14.63
2019-03-03T16:34:45.307Z,15.97
2019-03-03T16:37:14.193Z,14.20
2019-03-03T16:39:43.149Z,15.53
2019-03-03T16:42:11.986Z,10.10
2019-03-03T16:44:40.855Z,15.43
2019-03-03T16:47:09.756Z,13.30
2019-03-03T16:49:38.656Z,13.07
2019-03-03T16:52:07.533Z,11.73
2019-03-03T16:54:36.440Z,11.63
2019-03-03T16:57:05.574Z,7.70
2019-03-03T16:59:34.441Z,14.73
2019-03-03T17:02:03.365Z,10.07
2019-03-03T17:04:32.214Z,14.60
2019-03-03T17:07:01.012Z,7.97
2019-03-03T17:09:29.871Z,7.13
2019-03-03T17:11:58.856Z,9.90
2019-03-03T17:14:27.674Z,9.63
2019-03-03T17:16:56.604Z,9.83
2019-03-03T17:19:25.521Z,22.97
2019-03-03T17:21:54.339Z,11.70
2019-03-03T17:24:23.150Z,10.80
2019-03-03T17:26:51.976Z,10.53
2019-03-03T17:29:20.799Z,12.90
2019-03-03T17:31:49.664Z,8.77
2019-03-03T17:34:18.528Z,13.13
2019-03-03T17:36:47.317Z,10.83
2019-03-03T17:39:16.216Z,15.00
2019-03-03T17:41:45.044Z,9.70
2019-03-03T17:44:13.820Z,12.60
2019-03-03T17:46:42.613Z,9.70
2019-03-03T17:49:11.442Z,8.00
2019-03-03T17:51:40.277Z,10.40
2019-03-03T17:54:09.042Z,8.87
2019-03-03T17:56:37.939Z,12.00
2019-03-03T17:59:06.883Z,16.97
2019-03-03T18:01:35.693Z,9.00
2019-03-03T18:04:04.534Z,7.97
2019-03-03T18:06:38.806Z,10.33
2019-03-03T18:09:05.130Z,12.60
2019-03-03T18:11:33.950Z,13.70
2019-03-03T18:14:02.862Z,6.23
2019-03-03T18:16:31.660Z,11.00
2019-03-03T18:19:00.565Z,12.47
2019-03-03T18:21:29.394Z,17.07
2019-03-03T18:23:58.376Z,7.83
2019-03-03T18:26:27.430Z,7.80
2019-03-03T18:28:56.324Z,10.57
2019-03-03T18:31:25.352Z,11.03
2019-03-03T18:33:54.162Z,15.97
2019-03-03T18:36:23.040Z,7.40
2019-03-03T18:38:51.901Z,13.23
2019-03-03T18:41:20.670Z,11.20
2019-03-03T18:43:49.600Z,12.43
2019-03-03T18:46:18.515Z,7.90
2019-03-03T18:48:51.566Z,9.60
2019-03-03T18:51:20.369Z,11.93
2019-03-03T18:53:49.185Z,8.07
2019-03-03T18:56:18.123Z,13.10
2019-03-03T18:58:47.044Z,11.93
2019-03-03T19:01:15.893Z,14.53
2019-03-03T19:03:44.781Z,9.70
2019-03-03T19:06:13.618Z,16.43
2019-03-03T19:08:42.402Z,9.03
2019-03-03T19:11:11.295Z,8.50
2019-03-03T19:13:40.087Z,6.87
2019-03-03T19:16:08.952Z,8.60
2019-03-03T19:18:37.730Z,11.57
2019-03-03T19:21:06.681Z,9.90
2019-03-03T19:23:35.613Z,15.00
2019-03-03T19:26:05.602Z,8.43
2019-03-03T19:28:34.531Z,16.20
2019-03-03T19:31:03.457Z,12.13
2019-03-03T19:33:39.848Z,9.80
2019-03-03T19:36:08.908Z,10.83
2019-03-03T19:38:37.679Z,13.47
2019-03-03T19:41:06.588Z,7.67
2019-03-03T19:43:35.451Z,7.67
2019-03-03T19:46:04.944Z,9.17
2019-03-03T19:48:35.858Z,7.17
2019-03-03T19:51:04.761Z,8.83
2019-03-03T19:53:33.639Z,6.63
2019-03-03T19:56:02.535Z,8.20
2019-03-03T19:58:31.420Z,8.63
2019-03-03T20:01:00.415Z,7.90
2019-03-03T20:03:29.948Z,5.60
2019-03-03T20:05:58.893Z,5.57
2019-03-03T20:08:27.885Z,5.27
2019-03-03T20:10:56.837Z,10.73
2019-03-03T20:13:25.789Z,7.07
2019-03-03T20:15:54.669Z,6.13
2019-03-03T20:18:23.725Z,5.20
2019-03-03T20:20:52.591Z,4.87
2019-03-03T20:23:21.544Z,6.67
2019-03-03T20:25:50.337Z,13.07
2019-03-03T20:28:19.386Z,6.67
2019-03-03T20:30:48.680Z,12.67
2019-03-03T20:33:17.507Z,7.33
2019-03-03T20:35:46.552Z,6.00
2019-03-03T20:38:15.385Z,6.00
2019-03-03T20:40:44.325Z,7.60
2019-03-03T20:43:13.267Z,4.00
2019-03-03T20:45:42.268Z,8.70
2019-03-03T20:48:11.249Z,7.90
2019-03-03T20:50:41.854Z,12.67
2019-03-03T20:53:10.808Z,7.43
2019-03-03T20:55:40.278Z,5.97
2019-03-03T20:58:09.106Z,7.30
2019-03-03T21:00:38.104Z,6.37
2019-03-03T21:03:06.994Z,7.43
2019-03-03T21:05:36.141Z,7.50
2019-03-03T21:08:04.952Z,5.00
2019-03-03T21:10:33.873Z,9.60
2019-03-03T21:13:02.695Z,9.97
2019-03-03T21:15:31.603Z,12.03
2019-03-03T21:18:00.534Z,6.20
2019-03-03T21:20:29.428Z,6.50
2019-03-03T21:22:58.220Z,9.50
2019-03-03T21:25:27.009Z,7.90
2019-03-03T21:27:55.930Z,9.50
2019-03-03T21:30:26.814Z,13.17
2019-03-03T21:32:56.284Z,14.40
2019-03-03T21:35:25.347Z,10.27
2019-03-03T21:37:54.344Z,10.90
2019-03-03T21:40:23.194Z,10.60
2019-03-03T21:42:51.985Z,12.10
2019-03-03T21:45:21.337Z,12.67
2019-03-03T21:47:50.251Z,5.60
2019-03-03T21:50:20.697Z,4.23
2019-03-03T21:52:49.718Z,6.23
2019-03-03T21:55:18.553Z,7.00
2019-03-03T21:57:47.459Z,4.20
2019-03-03T22:00:23.090Z,6.27
2019-03-03T22:02:51.971Z,8.40
2019-03-03T22:05:20.840Z,7.23
2019-03-03T22:07:49.763Z,9.43
2019-03-03T22:10:18.654Z,7.07
2019-03-03T22:12:47.516Z,4.87
2019-03-03T22:15:16.300Z,7.27
2019-03-03T22:17:45.163Z,4.10
2019-03-03T22:20:14.102Z,5.33
2019-03-03T22:22:43.105Z,13.03
2019-03-03T22:25:12.282Z,5.20
2019-03-03T22:27:41.128Z,6.23
2019-03-03T22:30:10.225Z,10.20
2019-03-03T22:32:39.067Z,9.33
2019-03-03T22:35:08.105Z,8.03
2019-03-03T22:37:37.048Z,7.47
2019-03-03T22:40:06.858Z,5.47
2019-03-03T22:42:35.686Z,7.17
2019-03-03T22:45:04.831Z,4.27
2019-03-03T22:47:33.623Z,9.90
2019-03-03T22:50:02.441Z,9.10
2019-03-03T22:52:31.309Z,7.67
2019-03-03T22:55:00.308Z,6.47
2019-03-03T22:57:29.326Z,9.20
2019-03-03T22:59:58.202Z,7.73
2019-03-03T23:02:27.062Z,8.97
2019-03-03T23:05:04.026Z,13.00
2019-03-03T23:07:40.476Z,4.13
2019-03-03T23:10:46.608Z,6.23
2019-03-03T23:13:39.079Z,9.17
2019-03-03T23:16:48.354Z,6.57
2019-03-03T23:19:56.644Z,8.53
2019-03-03T23:23:02.267Z,4.37
2019-03-03T23:25:59.624Z,3.83
2019-03-03T23:28:28.671Z,7.57
2019-03-03T23:30:58.050Z,9.40
2019-03-03T23:33:26.846Z,8.77
2019-03-03T23:35:55.748Z,8.40
2019-03-03T23:38:24.620Z,5.87
2019-03-03T23:40:53.476Z,7.20
2019-03-03T23:43:22.848Z,6.90
2019-03-03T23:45:51.636Z,13.67
2019-03-03T23:48:21.000Z,7.10
2019-03-03T23:50:49.941Z,5.10
2019-03-03T23:53:18.779Z,5.97
2019-03-03T23:55:47.615Z,8.10
2019-03-03T23:58:16.419Z,4.57
